Time;durP1;ratioP1;P1;durP2;ratioP2;P2;SDS_P1;SDS_P2;PMS_P1;PMS_P2;Temp;Humidity;BMP_temperature;BMP_pressure;BME280_temperature;BME280_humidity;BME280_pressure;Samples;Min_cycle;Max_cycle;Signal;HPM_P1;HPM_P2
2021/09/12 00:00:29;;;;;;;;;;;18.20;99.90;;;;;;5066425;28;20423;-60
2021/09/12 00:02:55;;;;;;;;;;;18.20;99.90;;;;;;5069948;28;19912;-60
2021/09/12 00:05:21;;;;;;;;;;;18.10;99.90;;;;;;5068146;28;19950;-60
2021/09/12 00:07:46;;;;;;;;;;;18.20;99.90;;;;;;5066003;28;20164;-60
2021/09/12 00:10:12;;;;;;;;;;;18.20;99.90;;;;;;5065373;28;19916;-60
2021/09/12 00:12:38;;;;;;;;;;;18.10;99.90;;;;;;5068342;28;19920;-60
2021/09/12 00:15:05;;;;;;;;;;;18.10;99.90;;;;;;5068856;28;19912;-59
2021/09/12 00:17:31;;;;;;;;;;;18.10;99.90;;;;;;5063268;28;20115;-60
2021/09/12 00:19:56;;;;;;;;;;;18.10;99.90;;;;;;5070427;28;19919;-60
2021/09/12 00:22:22;;;;;;;;;;;18.10;99.90;;;;;;5068013;28;19989;-60
2021/09/12 00:24:48;;;;;;;;;;;18.10;99.90;;;;;;5069450;28;20176;-59
2021/09/12 00:27:14;;;;;;;;;;;18.10;99.90;;;;;;5071509;28;19947;-60
2021/09/12 00:29:40;;;;;;;;;;;18.00;99.90;;;;;;5068999;28;19947;-60
2021/09/12 00:32:06;;;;;;;;;;;18.00;99.90;;;;;;5065699;28;19916;-60
2021/09/12 00:34:31;;;;;;;;;;;18.00;99.90;;;;;;5067882;28;20179;-59
2021/09/12 00:36:57;;;;;;;;;;;18.00;99.90;;;;;;5066825;28;19913;-60
2021/09/12 00:39:23;;;;;;;;;;;18.00;99.90;;;;;;5065947;28;19948;-60
2021/09/12 00:41:48;;;;;;;;;;;18.00;99.90;;;;;;5065344;28;19927;-60
2021/09/12 00:44:14;;;;;;;;;;;18.00;99.90;;;;;;5069954;28;20122;-60
2021/09/12 00:46:40;;;;;;;;;;;18.00;99.90;;;;;;5066210;28;19913;-60
2021/09/12 00:49:06;;;;;;;;;;;18.00;99.90;;;;;;5064718;28;19921;-60
2021/09/12 00:51:32;;;;;;;;;;;17.90;99.90;;;;;;5069830;28;19943;-60
2021/09/12 00:53:58;;;;;;;;;;;18.00;99.90;;;;;;5067744;28;19964;-60
2021/09/12 00:56:26;;;;;;;;;;;17.90;99.90;;;;;;5069835;28;19952;-59
2021/09/12 00:58:53;;;;;;;;;;;18.00;99.90;;;;;;5065509;28;19938;-59
2021/09/12 01:01:19;;;;;;;;;;;18.00;99.90;;;;;;5065540;28;19913;-60
2021/09/12 01:03:44;;;;;;;;;;;17.90;99.90;;;;;;5066436;28;19920;-60
2021/09/12 01:06:10;;;;;;;;;;;17.90;99.90;;;;;;5068373;28;19912;-60
2021/09/12 01:08:38;;;;;;;;;;;17.90;99.90;;;;;;5065823;28;19955;-60
2021/09/12 01:11:03;;;;;;;;;;;18.00;99.90;;;;;;5065971;28;20147;-59
2021/09/12 01:13:29;;;;;;;;;;;18.00;99.90;;;;;;5068016;28;19989;-60
2021/09/12 01:15:55;;;;;;;;;;;18.00;99.90;;;;;;5063308;28;19920;-60
2021/09/12 01:18:20;;;;;;;;;;;17.90;99.90;;;;;;5069519;28;20401;-60
2021/09/12 01:20:46;;;;;;;;;;;17.90;99.90;;;;;;5066725;28;20118;-60
2021/09/12 01:23:12;;;;;;;;;;;17.90;99.90;;;;;;5065898;28;19912;-59
2021/09/12 01:25:37;;;;;;;;;;;18.00;99.90;;;;;;5066666;28;19924;-59
2021/09/12 01:28:04;;;;;;;;;;;17.80;99.90;;;;;;5068221;28;19920;-59
2021/09/12 01:30:30;;;;;;;;;;;17.80;99.90;;;;;;5068835;28;19912;-60
2021/09/12 01:32:56;;;;;;;;;;;17.80;99.90;;;;;;5068688;28;19920;-59
2021/09/12 01:35:21;;;;;;;;;;;17.80;99.90;;;;;;5067035;28;19935;-60
2021/09/12 01:37:47;;;;;;;;;;;17.90;99.90;;;;;;5071087;28;19919;-60
2021/09/12 01:40:13;;;;;;;;;;;17.90;99.90;;;;;;5071555;28;19923;-60
2021/09/12 01:42:39;;;;;;;;;;;17.90;99.90;;;;;;5071492;28;19924;-60
2021/09/12 01:45:05;;;;;;;;;;;17.90;99.90;;;;;;5084985;28;20199;-59
2021/09/12 01:47:30;;;;;;;;;;;17.80;99.90;;;;;;5071098;28;20099;-59
2021/09/12 01:49:56;;;;;;;;;;;17.80;99.90;;;;;;5072303;28;19983;-59
2021/09/12 01:52:22;;;;;;;;;;;17.70;99.90;;;;;;5068299;28;20222;-60
2021/09/12 01:54:48;;;;;;;;;;;17.70;99.90;;;;;;5070875;28;20191;-60
2021/09/12 01:57:14;;;;;;;;;;;17.70;99.90;;;;;;5069239;28;19913;-59
2021/09/12 01:59:40;;;;;;;;;;;17.60;99.90;;;;;;5070355;28;20261;-59
2021/09/12 02:02:05;;;;;;;;;;;17.60;99.90;;;;;;5072240;28;19916;-60
2021/09/12 02:04:31;;;;;;;;;;;17.60;99.90;;;;;;5070313;28;20222;-60
2021/09/12 02:06:57;;;;;;;;;;;17.60;99.90;;;;;;5072195;28;19916;-60
2021/09/12 02:09:26;;;;;;;;;;;17.60;99.90;;;;;;5072647;28;20520;-59
2021/09/12 02:11:52;;;;;;;;;;;17.50;99.90;;;;;;5071761;28;19920;-59
2021/09/12 02:14:18;;;;;;;;;;;17.50;99.90;;;;;;5068761;28;19919;-59
2021/09/12 02:16:44;;;;;;;;;;;17.60;99.90;;;;;;5070487;28;19912;-60
2021/09/12 02:19:09;;;;;;;;;;;17.60;99.90;;;;;;5069854;28;19952;-59
2021/09/12 02:21:35;;;;;;;;;;;17.50;99.90;;;;;;5072332;28;20245;-60
2021/09/12 02:24:01;;;;;;;;;;;17.50;99.90;;;;;;5071725;28;19913;-59
2021/09/12 02:26:26;;;;;;;;;;;17.50;99.90;;;;;;5070707;28;19912;-59
2021/09/12 02:28:52;;;;;;;;;;;17.50;99.90;;;;;;5069311;28;19999;-59
2021/09/12 02:31:17;;;;;;;;;;;17.60;99.90;;;;;;5069717;28;20287;-60
2021/09/12 02:33:43;;;;;;;;;;;17.60;99.90;;;;;;5068436;28;19920;-60
2021/09/12 02:36:09;;;;;;;;;;;17.60;99.90;;;;;;5071245;28;19983;-60
2021/09/12 02:38:34;;;;;;;;;;;17.60;99.90;;;;;;5068915;28;20203;-59
2021/09/12 02:41:00;;;;;;;;;;;17.60;99.90;;;;;;5070437;28;20027;-59
2021/09/12 02:43:27;;;;;;;;;;;17.60;99.90;;;;;;5069676;28;19912;-60
2021/09/12 02:45:52;;;;;;;;;;;17.70;99.90;;;;;;5070972;28;19936;-59
2021/09/12 02:48:18;;;;;;;;;;;17.60;99.90;;;;;;5070743;28;20087;-59
2021/09/12 02:50:44;;;;;;;;;;;17.60;99.90;;;;;;5071446;28;19920;-60
2021/09/12 02:53:10;;;;;;;;;;;17.60;99.90;;;;;;5070901;28;19913;-60
2021/09/12 02:55:36;;;;;;;;;;;17.70;99.90;;;;;;5072958;28;20115;-59
2021/09/12 02:58:01;;;;;;;;;;;17.70;99.90;;;;;;5065704;28;19913;-60
2021/09/12 03:00:27;;;;;;;;;;;17.70;99.90;;;;;;5067491;28;19916;-59
2021/09/12 03:02:53;;;;;;;;;;;17.70;99.90;;;;;;5070900;28;19981;-59
2021/09/12 03:05:18;;;;;;;;;;;17.70;99.90;;;;;;5067876;28;19912;-59
2021/09/12 03:07:44;;;;;;;;;;;17.70;99.90;;;;;;5071719;28;19924;-60
2021/09/12 03:10:10;;;;;;;;;;;17.70;99.90;;;;;;5068542;28;19957;-59
2021/09/12 03:12:35;;;;;;;;;;;17.70;99.90;;;;;;5070099;28;19912;-60
2021/09/12 03:15:01;;;;;;;;;;;17.70;99.90;;;;;;5069408;28;20198;-59
2021/09/12 03:17:27;;;;;;;;;;;17.70;99.90;;;;;;5072648;28;19947;-60
2021/09/12 03:19:53;;;;;;;;;;;17.70;99.90;;;;;;5069799;28;19916;-59
2021/09/12 03:22:18;;;;;;;;;;;17.80;99.90;;;;;;5068933;28;19912;-60
2021/09/12 03:24:44;;;;;;;;;;;17.70;99.90;;;;;;5071700;28;19912;-59
2021/09/12 03:27:10;;;;;;;;;;;17.70;99.90;;;;;;5066880;28;20087;-60
2021/09/12 03:29:35;;;;;;;;;;;17.70;99.90;;;;;;5068998;28;19927;-60
2021/09/12 03:32:01;;;;;;;;;;;17.70;99.90;;;;;;5084230;28;19912;-60
2021/09/12 03:34:27;;;;;;;;;;;17.70;99.90;;;;;;5069714;28;20100;-60
2021/09/12 03:36:53;;;;;;;;;;;17.70;99.90;;;;;;5067698;28;19920;-60
2021/09/12 03:39:18;;;;;;;;;;;17.70;99.90;;;;;;5068644;28;19912;-59
2021/09/12 03:41:44;;;;;;;;;;;17.70;99.90;;;;;;5072436;28;20191;-60
2021/09/12 03:44:10;;;;;;;;;;;17.70;99.90;;;;;;5071193;28;20212;-60
2021/09/12 03:46:36;;;;;;;;;;;17.70;99.90;;;;;;5071636;28;19912;-60
2021/09/12 03:49:01;;;;;;;;;;;17.70;99.90;;;;;;5068303;28;19920;-60
2021/09/12 03:51:27;;;;;;;;;;;17.70;99.90;;;;;;5068172;28;19919;-60
2021/09/12 03:53:53;;;;;;;;;;;17.70;99.90;;;;;;5070519;28;19912;-60
2021/09/12 03:56:18;;;;;;;;;;;17.70;99.90;;;;;;5068621;28;19919;-60
2021/09/12 03:58:44;;;;;;;;;;;17.70;99.90;;;;;;5065626;28;19920;-60
2021/09/12 04:01:10;;;;;;;;;;;17.70;99.90;;;;;;5068359;28;19955;-60
2021/09/12 04:03:35;;;;;;;;;;;17.70;99.90;;;;;;5068955;28;20307;-60
2021/09/12 04:06:01;;;;;;;;;;;17.70;99.90;;;;;;5065972;28;19912;-59
2021/09/12 04:08:27;;;;;;;;;;;17.70;99.90;;;;;;5069284;28;20081;-60
2021/09/12 04:10:52;;;;;;;;;;;17.60;99.90;;;;;;5067956;28;20118;-60
2021/09/12 04:13:18;;;;;;;;;;;17.60;99.90;;;;;;5065891;28;19916;-59
2021/09/12 04:15:44;;;;;;;;;;;17.60;99.90;;;;;;5068937;28;20269;-60
2021/09/12 04:18:09;;;;;;;;;;;17.60;99.90;;;;;;5067884;28;19917;-59
2021/09/12 04:20:35;;;;;;;;;;;17.70;99.90;;;;;;5067641;28;20255;-60
2021/09/12 04:23:01;;;;;;;;;;;17.70;99.90;;;;;;5068800;28;19916;-60
2021/09/12 04:25:26;;;;;;;;;;;17.60;99.90;;;;;;5070431;28;19951;-60
2021/09/12 04:27:52;;;;;;;;;;;17.70;99.90;;;;;;5066730;28;20105;-59
2021/09/12 04:30:18;;;;;;;;;;;17.70;99.90;;;;;;5065391;28;20102;-60
2021/09/12 04:32:44;;;;;;;;;;;17.60;99.90;;;;;;5067278;28;19912;-60
2021/09/12 04:35:09;;;;;;;;;;;17.60;99.90;;;;;;5059724;28;19913;-60
2021/09/12 04:37:35;;;;;;;;;;;17.50;99.90;;;;;;5064980;28;19918;-60
2021/09/12 04:40:01;;;;;;;;;;;17.60;99.90;;;;;;5062164;28;19939;-59
2021/09/12 04:42:27;;;;;;;;;;;17.60;99.90;;;;;;5061297;28;19989;-60
2021/09/12 04:44:52;;;;;;;;;;;17.60;99.90;;;;;;5055832;28;20058;-60
2021/09/12 04:47:18;;;;;;;;;;;17.60;99.90;;;;;;5061628;28;20018;-60
2021/09/12 04:49:44;;;;;;;;;;;17.60;99.90;;;;;;5065710;28;20199;-60
2021/09/12 04:52:09;;;;;;;;;;;17.60;99.90;;;;;;5063042;28;19996;-60
2021/09/12 04:54:35;;;;;;;;;;;17.60;99.90;;;;;;5061224;28;20174;-60
2021/09/12 04:57:01;;;;;;;;;;;17.60;99.90;;;;;;5065423;28;19980;-59
2021/09/12 04:59:27;;;;;;;;;;;17.70;99.90;;;;;;5068142;28;19923;-59
2021/09/12 05:01:52;;;;;;;;;;;17.70;99.90;;;;;;5065026;28;20106;-60
2021/09/12 05:04:18;;;;;;;;;;;17.70;99.90;;;;;;5067422;28;19912;-60
2021/09/12 05:06:44;;;;;;;;;;;17.70;99.90;;;;;;5068042;28;19983;-60
2021/09/12 05:09:09;;;;;;;;;;;17.70;99.90;;;;;;5062986;28;20195;-59
2021/09/12 05:11:35;;;;;;;;;;;17.70;99.90;;;;;;5065148;28;19951;-59
2021/09/12 05:14:01;;;;;;;;;;;17.70;99.90;;;;;;5067744;28;20253;-59
2021/09/12 05:16:26;;;;;;;;;;;17.70;99.90;;;;;;5063222;28;20143;-59
2021/09/12 05:18:53;;;;;;;;;;;17.60;99.90;;;;;;5067158;28;20285;-59
2021/09/12 05:21:18;;;;;;;;;;;17.60;99.90;;;;;;5068581;28;20260;-59
2021/09/12 05:23:44;;;;;;;;;;;17.60;99.90;;;;;;5069005;28;19912;-59
2021/09/12 05:26:10;;;;;;;;;;;17.60;99.90;;;;;;5065273;28;19912;-60
2021/09/12 05:28:36;;;;;;;;;;;17.40;99.90;;;;;;5067554;28;19924;-60
2021/09/12 05:31:02;;;;;;;;;;;17.50;99.90;;;;;;5065172;28;19989;-59
2021/09/12 05:33:29;;;;;;;;;;;17.50;99.90;;;;;;5069213;28;20042;-59
2021/09/12 05:35:58;;;;;;;;;;;17.50;99.90;;;;;;5063625;28;19912;-59
2021/09/12 05:38:24;;;;;;;;;;;17.50;99.90;;;;;;5062011;28;19920;-59
2021/09/12 05:40:50;;;;;;;;;;;17.50;99.90;;;;;;5070034;28;19912;-59
2021/09/12 05:43:15;;;;;;;;;;;17.50;99.90;;;;;;5068744;28;19919;-59
2021/09/12 05:45:41;;;;;;;;;;;17.50;99.90;;;;;;5068000;28;19912;-59
2021/09/12 05:48:07;;;;;;;;;;;17.60;99.90;;;;;;5064746;28;19927;-59
2021/09/12 05:50:32;;;;;;;;;;;17.70;99.90;;;;;;5070490;28;19920;-60
2021/09/12 05:53:03;;;;;;;;;;;17.80;99.90;;;;;;5065206;28;19918;-59
2021/09/12 05:55:29;;;;;;;;;;;17.80;99.90;;;;;;5069066;28;19919;-59
2021/09/12 05:57:55;;;;;;;;;;;17.80;99.90;;;;;;5068119;28;19912;-59
2021/09/12 06:00:20;;;;;;;;;;;17.80;99.90;;;;;;5069382;28;19991;-60
2021/09/12 06:02:46;;;;;;;;;;;17.90;99.90;;;;;;5066725;28;20012;-60
2021/09/12 06:05:12;;;;;;;;;;;17.90;99.90;;;;;;5066297;28;19912;-59
2021/09/12 06:07:37;;;;;;;;;;;18.00;99.90;;;;;;5065954;28;19991;-59
2021/09/12 06:10:04;;;;;;;;;;;18.00;99.90;;;;;;5070816;28;19913;-59
2021/09/12 06:12:29;;;;;;;;;;;18.10;99.90;;;;;;5068005;28;20450;-59
2021/09/12 06:14:55;;;;;;;;;;;18.10;99.90;;;;;;5070201;28;19939;-59
2021/09/12 06:17:21;;;;;;;;;;;18.10;99.90;;;;;;5066222;28;19919;-59
2021/09/12 06:19:48;;;;;;;;;;;18.10;99.90;;;;;;5064790;28;19919;-59
2021/09/12 06:22:14;;;;;;;;;;;18.10;99.90;;;;;;5066570;28;19932;-59
2021/09/12 06:24:39;;;;;;;;;;;18.10;99.90;;;;;;5066164;28;19912;-59
2021/09/12 06:27:05;;;;;;;;;;;18.10;99.90;;;;;;5064046;28;19954;-59
2021/09/12 06:29:31;;;;;;;;;;;18.20;99.90;;;;;;5062249;28;19920;-59
2021/09/12 06:31:57;;;;;;;;;;;18.20;99.90;;;;;;5064315;28;19912;-60
2021/09/12 06:34:22;;;;;;;;;;;18.40;99.90;;;;;;5068797;28;20139;-59
2021/09/12 06:36:48;;;;;;;;;;;18.60;99.90;;;;;;5065339;28;19970;-60
2021/09/12 06:39:14;;;;;;;;;;;18.70;99.90;;;;;;5066520;28;20211;-59
2021/09/12 06:41:40;;;;;;;;;;;18.80;99.90;;;;;;5063793;28;19978;-59
2021/09/12 06:44:05;;;;;;;;;;;18.80;99.90;;;;;;5068879;28;19948;-59
2021/09/12 06:46:31;;;;;;;;;;;18.60;99.90;;;;;;5069621;28;19916;-59
2021/09/12 06:48:57;;;;;;;;;;;18.60;99.90;;;;;;5068403;28;19996;-59
2021/09/12 06:51:23;;;;;;;;;;;18.50;99.90;;;;;;5070513;28;20348;-59
2021/09/12 06:53:48;;;;;;;;;;;18.50;99.90;;;;;;5067711;28;19920;-60
2021/09/12 06:56:14;;;;;;;;;;;18.50;99.90;;;;;;5067212;28;19912;-60
2021/09/12 06:58:42;;;;;;;;;;;18.50;99.90;;;;;;5067979;28;19912;-59
2021/09/12 07:01:08;;;;;;;;;;;18.50;99.90;;;;;;5070558;28;19918;-59
2021/09/12 07:03:33;;;;;;;;;;;18.50;99.90;;;;;;5069064;28;19939;-60
2021/09/12 07:05:59;;;;;;;;;;;18.40;99.90;;;;;;5067933;28;19913;-60
2021/09/12 07:08:25;;;;;;;;;;;18.40;99.90;;;;;;5071114;28;19993;-60
2021/09/12 07:10:51;;;;;;;;;;;18.40;99.90;;;;;;5068756;28;19919;-60
2021/09/12 07:13:16;;;;;;;;;;;18.50;99.90;;;;;;5063614;28;20274;-59
2021/09/12 07:15:42;;;;;;;;;;;18.50;99.90;;;;;;5071338;28;20218;-59
2021/09/12 07:18:08;;;;;;;;;;;18.50;99.90;;;;;;5069535;28;19951;-59
2021/09/12 07:20:33;;;;;;;;;;;18.50;99.90;;;;;;5069781;28;19920;-59
2021/09/12 07:22:59;;;;;;;;;;;18.50;99.90;;;;;;5065600;28;19975;-60
2021/09/12 07:25:27;;;;;;;;;;;18.50;99.90;;;;;;5065335;28;19916;-59
2021/09/12 07:27:54;;;;;;;;;;;18.50;99.90;;;;;;5063466;28;19924;-59
2021/09/12 07:30:20;;;;;;;;;;;18.50;99.90;;;;;;5066805;28;20191;-59
2021/09/12 07:32:46;;;;;;;;;;;18.50;99.90;;;;;;5068111;28;19916;-59
2021/09/12 07:35:11;;;;;;;;;;;18.50;99.90;;;;;;5051820;28;20096;-59
2021/09/12 07:37:38;;;;;;;;;;;18.50;99.90;;;;;;5067517;28;19935;-59
2021/09/12 07:40:03;;;;;;;;;;;18.50;99.90;;;;;;5067677;28;19979;-59
2021/09/12 07:42:29;;;;;;;;;;;18.50;99.90;;;;;;5066536;28;19925;-59
2021/09/12 07:44:55;;;;;;;;;;;18.50;99.90;;;;;;5066943;28;19996;-59
2021/09/12 07:47:21;;;;;;;;;;;18.50;99.90;;;;;;5068078;28;20084;-59
2021/09/12 07:49:46;;;;;;;;;;;18.50;99.90;;;;;;5065677;28;19923;-59
2021/09/12 07:52:12;;;;;;;;;;;18.50;99.90;;;;;;5070032;28;19951;-59
2021/09/12 07:54:38;;;;;;;;;;;18.60;99.90;;;;;;5070506;28;20130;-59
2021/09/12 07:57:03;;;;;;;;;;;18.70;99.90;;;;;;5065360;28;19974;-59
2021/09/12 07:59:29;;;;;;;;;;;18.70;99.90;;;;;;5066790;28;19979;-59
2021/09/12 08:01:55;;;;;;;;;;;18.80;99.90;;;;;;5068018;28;19951;-60
2021/09/12 08:04:21;;;;;;;;;;;18.90;99.90;;;;;;5059216;28;19912;-59
2021/09/12 08:06:46;;;;;;;;;;;19.00;99.90;;;;;;5064442;28;20026;-59
2021/09/12 08:09:12;;;;;;;;;;;19.00;99.90;;;;;;5065667;28;19920;-59
2021/09/12 08:11:38;;;;;;;;;;;19.00;99.90;;;;;;5064196;28;19916;-59
2021/09/12 08:14:04;;;;;;;;;;;19.10;99.90;;;;;;5068165;28;19927;-60
2021/09/12 08:16:29;;;;;;;;;;;19.10;99.90;;;;;;5064419;28;19919;-59
2021/09/12 08:18:55;;;;;;;;;;;19.10;99.90;;;;;;5068465;28;19969;-59
2021/09/12 08:21:21;;;;;;;;;;;19.20;99.90;;;;;;5070091;28;19912;-60
2021/09/12 08:23:47;;;;;;;;;;;19.20;99.90;;;;;;5066021;28;19987;-60
2021/09/12 08:26:12;;;;;;;;;;;19.30;99.90;;;;;;5067928;28;20401;-59
2021/09/12 08:28:38;;;;;;;;;;;19.40;99.90;;;;;;5067843;28;20122;-59
2021/09/12 08:31:04;;;;;;;;;;;19.60;99.90;;;;;;5069322;28;19973;-60
2021/09/12 08:33:30;;;;;;;;;;;19.80;99.90;;;;;;5069237;28;19931;-60
2021/09/12 08:35:55;;;;;;;;;;;20.00;99.90;;;;;;5068463;28;19997;-60
2021/09/12 08:38:21;;;;;;;;;;;19.90;99.90;;;;;;5068900;28;20335;-60
2021/09/12 08:40:47;;;;;;;;;;;19.80;99.90;;;;;;5068317;28;19912;-59
2021/09/12 08:43:13;;;;;;;;;;;19.90;99.90;;;;;;5066585;28;20096;-59
2021/09/12 08:45:38;;;;;;;;;;;19.90;99.90;;;;;;5063116;28;19920;-59
2021/09/12 08:48:04;;;;;;;;;;;19.90;99.90;;;;;;5064681;28;20432;-59
2021/09/12 08:50:30;;;;;;;;;;;20.00;99.90;;;;;;5062137;28;19912;-59
2021/09/12 08:52:56;;;;;;;;;;;20.10;99.90;;;;;;5063635;28;20159;-59
2021/09/12 08:55:21;;;;;;;;;;;20.30;99.90;;;;;;5061662;28;19913;-59
2021/09/12 08:57:49;;;;;;;;;;;20.50;99.90;;;;;;5061357;28;19979;-60
2021/09/12 09:00:22;;;;;;;;;;;20.90;99.90;;;;;;5061960;28;19912;-60
2021/09/12 09:02:48;;;;;;;;;;;20.90;99.90;;;;;;5063778;28;20181;-59
2021/09/12 09:05:14;;;;;;;;;;;20.90;99.90;;;;;;5063625;28;19989;-59
2021/09/12 09:07:40;;;;;;;;;;;20.90;99.90;;;;;;5059778;28;19920;-59
2021/09/12 09:10:19;;;;;;;;;;;20.60;99.90;;;;;;5060925;28;19916;-59
2021/09/12 09:12:45;;;;;;;;;;;20.50;99.90;;;;;;5064652;28;19950;-60
2021/09/12 09:15:12;;;;;;;;;;;20.50;99.90;;;;;;5060770;28;19956;-60
2021/09/12 09:17:42;;;;;;;;;;;20.40;99.90;;;;;;5060974;28;20098;-59
2021/09/12 09:20:09;;;;;;;;;;;20.40;99.90;;;;;;5064460;28;19913;-59
2021/09/12 09:22:36;;;;;;;;;;;20.40;99.90;;;;;;5068912;28;20028;-60
2021/09/12 09:25:09;;;;;;;;;;;20.60;99.90;;;;;;5059689;28;20791;-60
2021/09/12 09:27:53;;;;;;;;;;;20.70;99.90;;;;;;5061239;28;19920;-60
2021/09/12 09:30:19;;;;;;;;;;;20.70;99.90;;;;;;5062759;28;19919;-60
2021/09/12 09:32:45;;;;;;;;;;;20.60;99.90;;;;;;5060261;28;19987;-60
2021/09/12 09:35:20;;;;;;;;;;;20.40;99.90;;;;;;5060414;28;20133;-59
2021/09/12 09:37:47;;;;;;;;;;;20.40;99.90;;;;;;5061020;28;19987;-59
2021/09/12 09:40:13;;;;;;;;;;;20.50;99.90;;;;;;5060828;28;19947;-60
2021/09/12 09:42:40;;;;;;;;;;;20.40;99.90;;;;;;5061875;28;19927;-60
2021/09/12 09:45:07;;;;;;;;;;;20.60;99.90;;;;;;5060601;28;19923;-60
2021/09/12 09:47:33;;;;;;;;;;;21.10;99.90;;;;;;5054525;28;20183;-60
2021/09/12 09:50:08;;;;;;;;;;;21.70;99.90;;;;;;5056969;28;19946;-59
2021/09/12 09:52:35;;;;;;;;;;;22.20;99.90;;;;;;5060727;28;20353;-59
2021/09/12 09:55:01;;;;;;;;;;;22.40;99.90;;;;;;5055511;28;19957;-60
2021/09/12 09:57:27;;;;;;;;;;;22.70;99.90;;;;;;5066901;28;19981;-60
2021/09/12 09:59:52;;;;;;;;;;;22.70;99.90;;;;;;5071723;28;19916;-59
2021/09/12 10:02:19;;;;;;;;;;;22.70;99.90;;;;;;5069556;28;19912;-60
2021/09/12 10:04:44;;;;;;;;;;;22.60;99.90;;;;;;5072403;28;19954;-60
2021/09/12 10:07:11;;;;;;;;;;;22.70;99.90;;;;;;5071244;28;19916;-60
2021/09/12 10:09:37;;;;;;;;;;;23.00;99.90;;;;;;5074028;28;19970;-60
2021/09/12 10:12:05;;;;;;;;;;;22.90;99.90;;;;;;5072850;28;20003;-60
2021/09/12 10:14:41;;;;;;;;;;;22.90;99.90;;;;;;5074264;28;20253;-60
2021/09/12 10:17:13;;;;;;;;;;;23.10;99.90;;;;;;5074212;28;19927;-60
2021/09/12 10:19:39;;;;;;;;;;;23.10;99.90;;;;;;5070981;28;19970;-59
2021/09/12 10:22:10;;;;;;;;;;;22.60;99.90;;;;;;5068692;28;19970;-60
2021/09/12 10:24:55;;;;;;;;;;;22.10;99.90;;;;;;5069648;28;19916;-59
2021/09/12 10:27:35;;;;;;;;;;;21.80;99.90;;;;;;5071907;28;19912;-60
2021/09/12 10:30:19;;;;;;;;;;;21.70;99.90;;;;;;5074319;28;19916;-60
2021/09/12 10:32:45;;;;;;;;;;;21.60;99.90;;;;;;5064397;28;19913;-59
2021/09/12 10:35:24;;;;;;;;;;;21.70;99.90;;;;;;5074143;28;20207;-60
2021/09/12 10:38:00;;;;;;;;;;;22.10;99.90;;;;;;5070045;28;19980;-59
2021/09/12 10:40:45;;;;;;;;;;;22.10;99.90;;;;;;5070804;28;19912;-60
2021/09/12 10:43:23;;;;;;;;;;;21.80;99.90;;;;;;5065734;28;20425;-60
2021/09/12 10:46:04;;;;;;;;;;;21.50;99.90;;;;;;5064435;28;19913;-60
2021/09/12 10:48:34;;;;;;;;;;;21.40;99.90;;;;;;5063307;28;20222;-59
2021/09/12 10:51:03;;;;;;;;;;;21.20;99.90;;;;;;5070760;28;19920;-60
2021/09/12 10:53:48;;;;;;;;;;;21.00;99.90;;;;;;5070126;28;22350;-60
2021/09/12 10:56:20;;;;;;;;;;;20.90;99.90;;;;;;5068103;28;19912;-60
2021/09/12 10:58:50;;;;;;;;;;;21.40;99.90;;;;;;5066440;28;20268;-60
2021/09/12 11:01:28;;;;;;;;;;;21.80;99.90;;;;;;5071280;28;20428;-60
2021/09/12 11:03:58;;;;;;;;;;;21.80;99.90;;;;;;5071740;28;19919;-60
2021/09/12 11:06:27;;;;;;;;;;;21.50;99.90;;;;;;5070685;28;19936;-60
2021/09/12 11:08:53;;;;;;;;;;;21.00;99.90;;;;;;5066640;28;20211;-60
2021/09/12 11:11:19;;;;;;;;;;;20.60;99.90;;;;;;5061996;28;19913;-60
2021/09/12 11:13:44;;;;;;;;;;;20.70;99.90;;;;;;5068027;28;19920;-60
2021/09/12 11:16:10;;;;;;;;;;;21.10;99.90;;;;;;5059435;28;19912;-60
2021/09/12 11:18:42;;;;;;;;;;;21.70;99.90;;;;;;5066729;28;19983;-60
2021/09/12 11:21:08;;;;;;;;;;;21.90;99.90;;;;;;5069026;28;19912;-60
2021/09/12 11:23:35;;;;;;;;;;;22.10;99.90;;;;;;5069140;28;19935;-60
2021/09/12 11:26:01;;;;;;;;;;;22.70;99.90;;;;;;5069723;28;19920;-60
2021/09/12 11:28:27;;;;;;;;;;;23.20;99.90;;;;;;5068088;28;19920;-60
2021/09/12 11:30:53;;;;;;;;;;;23.60;99.90;;;;;;5066953;28;19912;-60
2021/09/12 11:33:19;;;;;;;;;;;23.90;99.90;;;;;;5067575;28;19919;-60
2021/09/12 11:36:01;;;;;;;;;;;23.80;99.90;;;;;;5068210;28;19919;-60
2021/09/12 11:38:27;;;;;;;;;;;23.80;99.90;;;;;;5064771;28;19912;-60
2021/09/12 11:40:57;;;;;;;;;;;23.20;99.90;;;;;;5063672;28;19977;-60
2021/09/12 11:43:23;;;;;;;;;;;23.10;99.90;;;;;;5068439;28;19920;-60
2021/09/12 11:46:06;;;;;;;;;;;22.50;99.90;;;;;;5068772;28;19979;-60
2021/09/12 11:48:31;;;;;;;;;;;22.40;99.90;;;;;;5066452;28;19927;-60
2021/09/12 11:50:57;;;;;;;;;;;21.80;99.90;;;;;;5063710;28;19913;-60
2021/09/12 11:53:27;;;;;;;;;;;21.90;99.90;;;;;;5070892;28;19940;-60
2021/09/12 11:55:52;;;;;;;;;;;22.60;99.90;;;;;;5068435;28;19912;-60
2021/09/12 11:58:19;;;;;;;;;;;23.30;99.90;;;;;;5067773;28;19912;-60
2021/09/12 12:00:47;;;;;;;;;;;23.00;99.90;;;;;;5068220;28;20218;-60
2021/09/12 12:03:14;;;;;;;;;;;22.70;99.90;;;;;;5069672;28;19920;-60
2021/09/12 12:05:41;;;;;;;;;;;22.60;99.90;;;;;;5069457;28;19912;-60
2021/09/12 12:08:08;;;;;;;;;;;22.60;99.90;;;;;;5064644;28;19930;-59
2021/09/12 12:10:37;;;;;;;;;;;22.00;99.90;;;;;;5069477;28;19912;-59
2021/09/12 12:13:03;;;;;;;;;;;22.10;99.90;;;;;;5065609;28;19913;-59
2021/09/12 12:15:36;;;;;;;;;;;22.20;99.90;;;;;;5073081;28;20037;-59
2021/09/12 12:18:07;;;;;;;;;;;22.00;99.90;;;;;;5067878;28;19920;-60
2021/09/12 12:20:33;;;;;;;;;;;21.80;99.90;;;;;;5071713;28;19912;-59
2021/09/12 12:23:12;;;;;;;;;;;21.70;99.90;;;;;;5065637;28;19912;-59
2021/09/12 12:25:38;;;;;;;;;;;21.70;99.90;;;;;;5066420;28;19959;-59
2021/09/12 12:28:12;;;;;;;;;;;21.60;99.90;;;;;;5066228;28;20122;-60
2021/09/12 12:30:38;;;;;;;;;;;21.70;99.90;;;;;;5064401;28;19939;-59
2021/09/12 12:33:04;;;;;;;;;;;21.90;99.90;;;;;;5064371;28;19935;-60
2021/09/12 12:35:30;;;;;;;;;;;22.20;99.90;;;;;;5065529;28;20233;-60
2021/09/12 12:37:55;;;;;;;;;;;22.60;99.90;;;;;;5060205;28;20023;-70
2021/09/12 12:40:22;;;;;;;;;;;22.70;99.90;;;;;;5069704;28;19916;-71
2021/09/12 12:42:49;;;;;;;;;;;22.90;99.90;;;;;;5070907;28;20197;-71
2021/09/12 12:45:44;;;;;;;;;;;23.00;99.90;;;;;;5066922;28;20107;-72
2021/09/12 12:48:09;;;;;;;;;;;23.20;99.90;;;;;;5068096;28;20246;-71
2021/09/12 12:50:35;;;;;;;;;;;23.40;99.90;;;;;;5069444;28;20300;-72
2021/09/12 12:53:11;;;;;;;;;;;23.70;99.90;;;;;;5070158;28;19918;-72
2021/09/12 12:55:37;;;;;;;;;;;23.00;99.90;;;;;;5070898;28;19991;-71
2021/09/12 12:58:05;;;;;;;;;;;22.20;99.90;;;;;;5067273;28;20138;-71
2021/09/12 13:00:31;;;;;;;;;;;22.10;99.90;;;;;;5062591;28;20292;-71
2021/09/12 13:02:56;;;;;;;;;;;21.90;99.90;;;;;;5071882;28;19970;-72
2021/09/12 13:05:22;;;;;;;;;;;21.70;99.90;;;;;;5070506;28;20230;-71
2021/09/12 13:07:48;;;;;;;;;;;21.80;99.90;;;;;;5062614;28;19927;-74
2021/09/12 13:10:13;;;;;;;;;;;21.70;99.90;;;;;;5062901;28;20739;-60
2021/09/12 13:12:39;;;;;;;;;;;21.40;99.90;;;;;;5057539;28;19916;-61
2021/09/12 13:15:05;;;;;;;;;;;21.20;99.90;;;;;;5064978;28;19934;-61
2021/09/12 13:17:31;;;;;;;;;;;21.10;99.90;;;;;;5055417;28;20080;-61
2021/09/12 13:19:56;;;;;;;;;;;21.00;99.90;;;;;;5057439;28;19919;-61
2021/09/12 13:22:22;;;;;;;;;;;20.90;99.90;;;;;;5054926;28;19912;-61
2021/09/12 13:24:48;;;;;;;;;;;20.80;99.90;;;;;;5056557;28;19912;-61
2021/09/12 13:27:14;;;;;;;;;;;20.80;99.90;;;;;;5056886;28;19912;-61
2021/09/12 13:29:39;;;;;;;;;;;21.00;99.90;;;;;;5062329;28;19920;-61
2021/09/12 13:32:05;;;;;;;;;;;20.90;99.90;;;;;;5069574;28;19996;-61
2021/09/12 13:34:30;;;;;;;;;;;20.80;99.90;;;;;;5072218;28;20100;-61
2021/09/12 13:36:56;;;;;;;;;;;20.50;99.90;;;;;;5068898;28;19950;-60
2021/09/12 13:39:22;;;;;;;;;;;20.40;99.90;;;;;;5068858;28;19949;-60
2021/09/12 13:41:48;;;;;;;;;;;20.20;99.90;;;;;;5068356;28;19916;-61
2021/09/12 13:44:13;;;;;;;;;;;20.10;99.90;;;;;;5067936;28;19919;-60
2021/09/12 13:46:39;;;;;;;;;;;20.30;99.90;;;;;;5067541;28;20248;-60
2021/09/12 13:49:05;;;;;;;;;;;20.60;99.90;;;;;;5066178;28;20154;-60
2021/09/12 13:51:30;;;;;;;;;;;21.00;99.90;;;;;;5068520;28;19955;-60
2021/09/12 13:53:56;;;;;;;;;;;21.20;99.90;;;;;;5060131;28;19916;-61
2021/09/12 13:56:22;;;;;;;;;;;21.30;99.90;;;;;;5069342;28;19974;-60
2021/09/12 13:58:47;;;;;;;;;;;21.40;99.90;;;;;;5061451;28;19972;-61
2021/09/12 14:01:13;;;;;;;;;;;21.50;99.90;;;;;;5059012;28;19912;-61
2021/09/12 14:03:39;;;;;;;;;;;21.60;99.90;;;;;;5061347;28;19989;-60
2021/09/12 14:06:04;;;;;;;;;;;21.60;99.90;;;;;;5060252;28;19912;-61
2021/09/12 14:08:30;;;;;;;;;;;21.40;99.90;;;;;;5046905;28;19928;-61
2021/09/12 14:10:59;;;;;;;;;;;21.50;99.90;;;;;;5055766;28;20034;-61
2021/09/12 14:13:25;;;;;;;;;;;21.40;99.90;;;;;;5056844;28;19950;-61